createdAt,value
2019-06-07T00:00:58.695Z,14.80
2019-06-07T00:03:29.995Z,14.70
2019-06-07T00:05:53.445Z,14.70
2019-06-07T00:08:27.285Z,14.70
2019-06-07T00:10:48.176Z,14.60
2019-06-07T00:13:17.105Z,14.60
2019-06-07T00:15:43.932Z,14.60
2019-06-07T00:18:14.180Z,14.60
2019-06-07T00:20:38.893Z,14.60
2019-06-07T00:23:05.262Z,14.60
2019-06-07T00:25:31.842Z,14.50
2019-06-07T00:27:58.323Z,14.60
2019-06-07T00:31:03.470Z,14.50
2019-06-07T00:33:30.052Z,14.50
2019-06-07T00:35:56.432Z,14.40
2019-06-07T00:38:22.956Z,14.40
2019-06-07T00:40:50.436Z,14.40
2019-06-07T00:43:22.121Z,14.30
2019-06-07T00:45:45.607Z,14.30
2019-06-07T00:48:24.537Z,14.30
2019-06-07T00:50:41.496Z,14.20
2019-06-07T00:53:20.435Z,14.20
2019-06-07T00:55:36.327Z,14.20
2019-06-07T00:58:03.108Z,14.10
2019-06-07T01:00:30.051Z,14.10
2019-06-07T01:02:56.610Z,14.10
2019-06-07T01:05:30.970Z,14.00
2019-06-07T01:07:51.793Z,13.90
2019-06-07T01:10:42.255Z,13.80
2019-06-07T01:12:47.078Z,13.80
2019-06-07T01:15:17.521Z,13.70
2019-06-07T01:18:25.878Z,13.60
2019-06-07T01:20:12.106Z,13.50
2019-06-07T01:22:38.725Z,13.30
2019-06-07T01:25:06.709Z,13.30
2019-06-07T01:27:33.100Z,13.30
2019-06-07T01:29:59.513Z,13.20
2019-06-07T01:32:27.278Z,13.20
2019-06-07T01:34:54.411Z,13.10
2019-06-07T01:37:24.985Z,13.10
2019-06-07T01:39:49.539Z,13.10
2019-06-07T01:42:18.113Z,13.00
2019-06-07T01:44:44.639Z,13.00
2019-06-07T01:47:11.081Z,12.90
2019-06-07T01:49:41.102Z,12.90
2019-06-07T01:52:10.732Z,12.80
2019-06-07T01:54:55.976Z,12.80
2019-06-07T01:57:30.947Z,12.70
2019-06-07T01:59:45.882Z,12.70
2019-06-07T02:02:14.072Z,12.60
2019-06-07T02:04:40.574Z,12.60
2019-06-07T02:07:06.934Z,12.60
2019-06-07T02:09:33.558Z,12.50
2019-06-07T02:12:00.027Z,12.40
2019-06-07T02:14:29.887Z,12.30
2019-06-07T02:16:55.380Z,12.30
2019-06-07T02:19:22.127Z,12.30
2019-06-07T02:21:49.599Z,12.30
2019-06-07T02:24:16.026Z,12.30
2019-06-07T02:26:42.475Z,12.30
2019-06-07T02:29:08.856Z,12.30
2019-06-07T02:31:39.716Z,12.30
2019-06-07T02:34:04.795Z,12.30
2019-06-07T02:36:39.254Z,12.20
2019-06-07T02:38:59.463Z,12.20
2019-06-07T02:41:32.595Z,12.20
2019-06-07T02:43:54.342Z,12.10
2019-06-07T02:46:34.118Z,12.00
2019-06-07T02:48:53.519Z,11.90
2019-06-07T02:51:20.219Z,12.00
2019-06-07T02:53:46.819Z,11.90
2019-06-07T02:56:42.005Z,11.90
2019-06-07T02:58:42.406Z,11.80
2019-06-07T03:01:09.979Z,11.90
2019-06-07T03:03:40.051Z,11.80
2019-06-07T03:06:05.564Z,11.80
2019-06-07T03:08:35.465Z,11.80
2019-06-07T03:11:01.534Z,11.70
2019-06-07T03:13:34.184Z,11.70
2019-06-07T03:16:07.223Z,11.70
2019-06-07T03:18:53.668Z,11.70
2019-06-07T03:21:22.274Z,11.60
2019-06-07T03:23:52.637Z,11.60
2019-06-07T03:26:21.816Z,11.60
2019-06-07T03:28:48.567Z,11.60
2019-06-07T03:31:16.269Z,11.60
2019-06-07T03:33:45.504Z,11.70
2019-06-07T03:36:23.505Z,11.70
2019-06-07T03:38:40.597Z,11.80
2019-06-07T03:41:07.159Z,11.70
2019-06-07T03:43:37.763Z,11.80
2019-06-07T03:46:01.913Z,11.80
2019-06-07T03:48:30.214Z,11.90
2019-06-07T03:51:04.509Z,12.00
2019-06-07T03:53:25.067Z,12.00
2019-06-07T03:55:51.607Z,12.20
2019-06-07T03:58:31.367Z,12.30
2019-06-07T04:00:46.287Z,12.60
2019-06-07T04:03:32.451Z,12.90
2019-06-07T04:05:43.605Z,12.90
2019-06-07T04:08:10.625Z,12.80
2019-06-07T04:10:55.746Z,12.80
2019-06-07T04:13:05.514Z,12.80
2019-06-07T04:15:33.829Z,12.90
2019-06-07T04:18:02.258Z,12.90
2019-06-07T04:20:32.562Z,12.90
2019-06-07T04:22:58.495Z,13.00
2019-06-07T04:25:25.027Z,13.10
2019-06-07T04:27:51.581Z,13.10
2019-06-07T04:30:35.570Z,13.10
2019-06-07T04:33:02.216Z,13.10
2019-06-07T04:35:31.439Z,13.10
2019-06-07T04:37:57.276Z,13.10
2019-06-07T04:40:24.272Z,13.10
2019-06-07T04:42:51.133Z,13.20
2019-06-07T04:45:39.742Z,13.20
2019-06-07T04:48:01.112Z,13.30
2019-06-07T04:50:33.423Z,13.80
2019-06-07T04:53:00.412Z,14.20
2019-06-07T04:55:27.066Z,14.50
2019-06-07T04:57:53.454Z,15.10
2019-06-07T05:00:49.774Z,15.40
2019-06-07T05:03:05.726Z,16.00
2019-06-07T05:05:34.359Z,16.80
2019-06-07T05:08:07.142Z,17.20
2019-06-07T05:10:35.113Z,17.10
2019-06-07T05:12:59.347Z,17.30
2019-06-07T05:15:26.731Z,17.50
2019-06-07T05:17:53.210Z,17.80
2019-06-07T05:20:19.789Z,18.30
2019-06-07T05:22:46.274Z,18.50
2019-06-07T05:25:13.775Z,19.00
2019-06-07T05:27:46.316Z,19.10
2019-06-07T05:30:36.613Z,18.90
2019-06-07T05:32:45.514Z,19.40
2019-06-07T05:35:10.581Z,19.60
2019-06-07T05:37:38.127Z,20.10
2019-06-07T05:40:07.049Z,20.50
2019-06-07T05:42:37.209Z,20.90
2019-06-07T05:45:04.960Z,21.10
2019-06-07T05:47:31.790Z,21.10
2019-06-07T05:49:58.620Z,21.10
2019-06-07T05:52:26.078Z,21.40
2019-06-07T05:54:52.648Z,22.10
2019-06-07T05:57:19.713Z,22.20
2019-06-07T05:59:47.579Z,22.60
2019-06-07T06:02:22.574Z,23.00
2019-06-07T06:04:48.767Z,23.00
2019-06-07T06:07:11.626Z,22.90
2019-06-07T06:09:38.247Z,23.10
2019-06-07T06:12:05.308Z,23.10
2019-06-07T06:14:31.959Z,23.10
2019-06-07T06:16:58.493Z,23.00
2019-06-07T06:19:25.034Z,23.50
2019-06-07T06:21:51.511Z,23.60
2019-06-07T06:24:18.080Z,23.30
2019-06-07T06:26:51.171Z,23.10
2019-06-07T06:29:12.752Z,23.40
2019-06-07T06:31:49.420Z,23.40
2019-06-07T06:34:07.548Z,23.60
2019-06-07T06:36:34.062Z,23.50
2019-06-07T06:39:00.826Z,23.80
2019-06-07T06:41:27.703Z,24.20
2019-06-07T06:43:54.370Z,24.40
2019-06-07T06:46:37.297Z,24.40
2019-06-07T06:48:54.890Z,24.70
2019-06-07T06:51:17.552Z,25.20
2019-06-07T06:53:46.230Z,25.80
2019-06-07T06:56:12.340Z,25.40
2019-06-07T06:59:21.539Z,25.20
2019-06-07T07:01:11.250Z,25.70
2019-06-07T07:04:01.262Z,25.60
2019-06-07T07:06:25.290Z,25.30
2019-06-07T07:08:40.888Z,25.90
2019-06-07T07:11:09.706Z,25.70
2019-06-07T07:13:36.588Z,25.50
2019-06-07T07:16:03.249Z,25.10
2019-06-07T07:18:29.639Z,25.20
2019-06-07T07:20:57.552Z,25.80
2019-06-07T07:23:24.239Z,26.80
2019-06-07T07:25:58.613Z,26.50
2019-06-07T07:28:20.482Z,26.50
2019-06-07T07:30:55.358Z,26.50
2019-06-07T07:33:21.572Z,26.60
2019-06-07T07:36:10.848Z,26.70
2019-06-07T07:38:16.997Z,27.00
2019-06-07T07:43:12.082Z,27.40
2019-06-07T07:45:38.702Z,27.20
2019-06-07T07:48:15.381Z,27.60
2019-06-07T07:50:33.671Z,27.90
2019-06-07T07:53:00.864Z,27.60
2019-06-07T07:55:27.590Z,28.40
2019-06-07T07:58:00.990Z,28.00
2019-06-07T08:00:50.309Z,28.50
2019-06-07T08:02:53.762Z,27.80
2019-06-07T08:05:29.071Z,27.20
2019-06-07T08:07:51.919Z,27.40
2019-06-07T08:10:17.630Z,28.10
2019-06-07T08:13:09.115Z,28.60
2019-06-07T08:15:13.408Z,29.30
2019-06-07T08:17:39.901Z,29.70
2019-06-07T08:20:07.607Z,29.00
2019-06-07T08:22:34.162Z,29.80
2019-06-07T08:25:04.116Z,29.40
2019-06-07T08:27:28.835Z,29.40
2019-06-07T08:30:15.647Z,29.70
2019-06-07T08:32:23.713Z,29.60
2019-06-07T08:34:54.954Z,29.80
2019-06-07T08:37:18.510Z,29.90
2019-06-07T08:39:45.200Z,29.90
2019-06-07T08:42:21.176Z,29.50
2019-06-07T08:44:41.550Z,29.30
2019-06-07T08:47:19.755Z,29.70
2019-06-07T08:49:36.389Z,29.50
2019-06-07T08:52:09.929Z,30.20
2019-06-07T08:54:31.244Z,29.80
2019-06-07T08:57:17.074Z,29.90
2019-06-07T08:59:29.986Z,30.40
2019-06-07T09:02:04.230Z,30.10
2019-06-07T09:04:32.121Z,29.80
2019-06-07T09:07:09.002Z,30.10
2019-06-07T09:09:34.324Z,29.70
2019-06-07T09:12:11.154Z,30.20
2019-06-07T09:14:58.793Z,29.70
2019-06-07T09:17:12.060Z,30.10
2019-06-07T09:19:36.723Z,30.30
2019-06-07T09:22:08.223Z,30.30
2019-06-07T09:24:31.704Z,30.50
2019-06-07T09:27:00.235Z,30.60
2019-06-07T09:29:26.619Z,30.80
2019-06-07T09:31:53.842Z,31.40
2019-06-07T09:34:20.565Z,31.50
2019-06-07T09:36:47.129Z,30.80
2019-06-07T09:39:13.584Z,30.30
2019-06-07T09:41:49.607Z,30.50
2019-06-07T09:44:23.285Z,31.20
2019-06-07T09:46:37.588Z,31.10
2019-06-07T09:49:21.079Z,31.90
2019-06-07T09:51:32.314Z,31.80
2019-06-07T09:54:01.268Z,31.80
2019-06-07T09:56:27.057Z,31.60
2019-06-07T09:58:54.322Z,30.60
2019-06-07T10:01:21.209Z,30.60
2019-06-07T10:03:48.643Z,30.90
2019-06-07T10:06:15.455Z,31.40
2019-06-07T10:11:12.213Z,31.90
2019-06-07T10:13:38.735Z,31.80
2019-06-07T10:16:11.852Z,32.30
2019-06-07T10:18:46.442Z,33.10
2019-06-07T10:21:18.277Z,33.20
2019-06-07T10:23:53.061Z,33.40
2019-06-07T10:26:23.337Z,33.30
2019-06-07T10:28:53.218Z,33.20
2019-06-07T10:31:18.118Z,32.60
2019-06-07T10:33:44.763Z,32.60
2019-06-07T10:36:11.220Z,31.80
2019-06-07T10:38:37.711Z,31.50
2019-06-07T10:41:04.762Z,32.00
2019-06-07T10:43:31.237Z,32.40
2019-06-07T10:45:58.760Z,32.50
2019-06-07T10:48:27.489Z,32.80
2019-06-07T10:50:58.757Z,32.30
2019-06-07T10:53:29.326Z,32.30
2019-06-07T10:55:56.899Z,32.30
2019-06-07T10:58:25.681Z,32.00
2019-06-07T11:00:53.176Z,32.00
2019-06-07T11:03:25.714Z,32.10
2019-06-07T11:05:59.318Z,31.50
2019-06-07T11:08:30.708Z,31.80
2019-06-07T11:10:58.392Z,31.70
2019-06-07T11:13:28.726Z,31.70
2019-06-07T11:15:55.207Z,31.70
2019-06-07T11:18:23.459Z,32.20
2019-06-07T11:20:52.730Z,32.70
2019-06-07T11:23:21.374Z,32.80
2019-06-07T11:25:47.790Z,32.90
2019-06-07T11:28:14.799Z,33.00
2019-06-07T11:30:42.634Z,32.40
2019-06-07T11:33:11.881Z,32.20
2019-06-07T11:35:42.074Z,32.90
2019-06-07T11:38:17.137Z,33.00
2019-06-07T11:40:47.798Z,33.80
2019-06-07T11:43:15.004Z,34.10
2019-06-07T11:45:46.711Z,33.80
2019-06-07T11:48:15.531Z,33.50
2019-06-07T11:50:48.580Z,33.00
2019-06-07T11:53:20.522Z,32.10
2019-06-07T11:55:46.902Z,32.70
2019-06-07T11:58:18.428Z,32.60
2019-06-07T12:00:41.832Z,32.90
2019-06-07T12:03:09.474Z,32.60
2019-06-07T12:05:36.079Z,32.80
2019-06-07T12:08:02.629Z,32.40
2019-06-07T12:10:41.795Z,32.30
2019-06-07T12:12:57.485Z,32.30
2019-06-07T12:15:23.907Z,32.30
2019-06-07T12:17:50.261Z,32.70
2019-06-07T12:20:18.683Z,32.40
2019-06-07T12:22:46.434Z,32.20
2019-06-07T12:25:18.996Z,32.40
2019-06-07T12:27:41.360Z,32.10
2019-06-07T12:30:15.428Z,32.10
2019-06-07T12:32:37.860Z,32.10
2019-06-07T12:35:05.911Z,32.70
2019-06-07T12:37:43.274Z,31.90
2019-06-07T12:40:02.884Z,31.70
2019-06-07T12:42:30.132Z,32.10
2019-06-07T12:45:00.595Z,32.10
2019-06-07T12:47:28.265Z,31.80
2019-06-07T12:49:54.611Z,31.70
2019-06-07T12:52:22.837Z,31.80
2019-06-07T12:54:49.250Z,31.90
2019-06-07T12:57:16.222Z,32.00
2019-06-07T12:59:42.865Z,31.80
2019-06-07T13:02:10.550Z,32.00
2019-06-07T13:04:36.987Z,31.70
2019-06-07T13:07:03.585Z,31.70
2019-06-07T13:09:30.075Z,31.90
2019-06-07T13:11:56.443Z,32.70
2019-06-07T13:14:24.027Z,31.80
2019-06-07T13:16:50.486Z,31.40
2019-06-07T13:19:18.003Z,31.10
2019-06-07T13:21:44.623Z,31.10
2019-06-07T13:24:11.004Z,30.90
2019-06-07T13:26:37.479Z,30.90
2019-06-07T13:29:04.135Z,30.90
2019-06-07T13:31:30.564Z,31.20
2019-06-07T13:33:56.938Z,31.30
2019-06-07T13:36:24.389Z,30.60
2019-06-07T13:38:51.091Z,30.30
2019-06-07T13:41:33.700Z,30.40
2019-06-07T13:43:45.815Z,30.40
2019-06-07T13:46:13.150Z,30.20
2019-06-07T13:48:39.600Z,30.10
2019-06-07T13:51:06.098Z,30.30
2019-06-07T13:53:32.541Z,30.10
2019-06-07T13:55:58.991Z,30.00
2019-06-07T13:58:26.388Z,29.70
2019-06-07T14:00:53.015Z,29.70
2019-06-07T14:03:33.650Z,29.70
2019-06-07T14:05:58.577Z,29.60
2019-06-07T14:08:25.266Z,29.70
2019-06-07T14:10:51.769Z,29.50
2019-06-07T14:13:19.386Z,29.70
2019-06-07T14:15:46.045Z,29.70
2019-06-07T14:18:12.389Z,29.70
2019-06-07T14:20:38.898Z,29.60
2019-06-07T14:23:05.458Z,29.70
2019-06-07T14:25:31.970Z,29.40
2019-06-07T14:27:58.434Z,29.20
2019-06-07T14:30:25.976Z,29.20
2019-06-07T14:32:52.570Z,29.00
2019-06-07T14:35:19.149Z,28.90
2019-06-07T14:37:45.544Z,28.90
2019-06-07T14:40:12.219Z,29.00
2019-06-07T14:42:38.590Z,29.00
2019-06-07T14:45:06.461Z,29.10
2019-06-07T14:47:34.123Z,28.90
2019-06-07T14:50:00.612Z,28.80
2019-06-07T14:52:28.343Z,28.70
2019-06-07T14:54:54.960Z,28.60
2019-06-07T14:57:21.324Z,28.50
2019-06-07T14:59:47.705Z,28.70
2019-06-07T15:02:14.157Z,28.80
2019-06-07T15:04:41.365Z,28.70
2019-06-07T15:07:10.135Z,28.80
2019-06-07T15:09:36.549Z,28.90
2019-06-07T15:12:03.013Z,28.90
2019-06-07T15:14:29.544Z,28.50
2019-06-07T15:16:55.944Z,28.90
2019-06-07T15:19:24.163Z,28.70
2019-06-07T15:21:50.683Z,28.70
2019-06-07T15:24:17.156Z,28.60
2019-06-07T15:26:43.722Z,28.50
2019-06-07T15:29:11.228Z,28.40
2019-06-07T15:31:38.700Z,28.40
2019-06-07T15:34:05.584Z,28.40
2019-06-07T15:36:32.532Z,28.30
2019-06-07T15:38:58.947Z,28.50
2019-06-07T15:41:25.419Z,28.40
2019-06-07T15:43:51.858Z,28.30
2019-06-07T15:46:18.368Z,28.30
2019-06-07T15:48:45.219Z,28.20
2019-06-07T15:51:11.772Z,28.30
2019-06-07T15:53:43.171Z,28.30
2019-06-07T15:56:06.559Z,28.30
2019-06-07T15:58:33.199Z,28.20
2019-06-07T16:00:59.638Z,28.10
2019-06-07T16:03:26.149Z,28.10
2019-06-07T16:05:52.647Z,28.10
2019-06-07T16:08:19.079Z,28.00
2019-06-07T16:10:45.536Z,27.90
2019-06-07T16:13:12.112Z,27.90
2019-06-07T16:15:39.161Z,27.80
2019-06-07T16:18:05.981Z,27.90
2019-06-07T16:20:33.246Z,27.90
2019-06-07T16:22:59.999Z,27.90
2019-06-07T16:25:27.211Z,27.80
2019-06-07T16:27:54.120Z,27.90
2019-06-07T16:30:21.303Z,27.80
2019-06-07T16:32:47.659Z,27.80
2019-06-07T16:35:14.766Z,27.80
2019-06-07T16:37:42.771Z,27.80
2019-06-07T16:40:11.165Z,27.80
2019-06-07T16:42:38.482Z,27.80
2019-06-07T16:45:06.524Z,27.70
2019-06-07T16:47:36.841Z,27.70
2019-06-07T16:50:06.241Z,27.60
2019-06-07T16:52:32.707Z,27.60
2019-06-07T16:54:59.193Z,27.50
2019-06-07T16:57:25.610Z,27.40
2019-06-07T16:59:52.062Z,27.40
2019-06-07T17:02:18.558Z,27.30
2019-06-07T17:04:45.642Z,27.20
2019-06-07T17:07:12.403Z,27.20
2019-06-07T17:09:39.984Z,27.10
2019-06-07T17:12:06.550Z,27.10
2019-06-07T17:14:33.005Z,27.10
2019-06-07T17:16:59.596Z,26.90
2019-06-07T17:19:25.937Z,26.90
2019-06-07T17:21:52.414Z,26.80
2019-06-07T17:24:18.976Z,26.80
2019-06-07T17:26:45.533Z,26.70
2019-06-07T17:29:12.037Z,26.70
2019-06-07T17:31:39.768Z,26.70
2019-06-07T17:34:06.400Z,26.70
2019-06-07T17:36:32.767Z,26.60
2019-06-07T17:38:59.269Z,26.60
2019-06-07T17:41:25.724Z,26.60
2019-06-07T17:43:59.982Z,26.50
2019-06-07T17:46:20.427Z,26.50
2019-06-07T17:49:06.883Z,26.50
2019-06-07T17:51:33.225Z,26.40
2019-06-07T17:53:59.798Z,26.40
2019-06-07T17:56:26.166Z,26.30
2019-06-07T17:58:52.531Z,26.30
2019-06-07T18:01:19.032Z,26.30
2019-06-07T18:03:46.980Z,26.20
2019-06-07T18:06:14.380Z,26.20
2019-06-07T18:08:40.863Z,26.10
2019-06-07T18:11:07.491Z,26.10
2019-06-07T18:13:33.862Z,26.00
2019-06-07T18:16:00.343Z,26.00
2019-06-07T18:18:26.721Z,26.00
2019-06-07T18:20:53.525Z,26.00
2019-06-07T18:23:20.172Z,25.90
2019-06-07T18:25:46.591Z,25.80
2019-06-07T18:28:13.070Z,25.80
2019-06-07T18:30:39.855Z,25.70
2019-06-07T18:33:06.342Z,25.60
2019-06-07T18:35:33.159Z,25.40
2019-06-07T18:37:59.517Z,25.40
2019-06-07T18:40:26.081Z,25.30
2019-06-07T18:42:53.248Z,25.20
2019-06-07T18:45:19.877Z,25.10
2019-06-07T18:47:47.846Z,25.10
2019-06-07T18:50:14.525Z,25.00
2019-06-07T18:52:42.823Z,24.90
2019-06-07T18:55:09.889Z,24.80
2019-06-07T18:57:36.462Z,24.70
2019-06-07T19:00:06.040Z,24.50
2019-06-07T19:02:32.720Z,24.40
2019-06-07T19:04:59.074Z,24.10
2019-06-07T19:07:25.502Z,24.00
2019-06-07T19:09:52.622Z,23.90
2019-06-07T19:12:19.275Z,23.80
2019-06-07T19:14:47.635Z,23.70
2019-06-07T19:17:14.023Z,23.70
2019-06-07T19:19:40.417Z,23.60
2019-06-07T19:22:07.041Z,23.50
2019-06-07T19:24:33.499Z,23.40
2019-06-07T19:27:00.798Z,23.20
2019-06-07T19:29:27.424Z,23.10
2019-06-07T19:31:54.935Z,23.10
2019-06-07T19:34:22.494Z,22.90
2019-06-07T19:36:49.188Z,22.80
2019-06-07T19:39:15.788Z,22.70
2019-06-07T19:41:42.395Z,22.60
2019-06-07T19:44:08.816Z,22.40
2019-06-07T19:46:35.273Z,22.50
2019-06-07T19:49:03.097Z,22.40
2019-06-07T19:51:29.857Z,22.40
2019-06-07T19:53:57.103Z,22.30
2019-06-07T19:56:23.541Z,22.30
2019-06-07T19:58:49.923Z,22.30
2019-06-07T20:01:16.468Z,22.20
2019-06-07T20:03:43.075Z,22.20
2019-06-07T20:06:09.748Z,22.10
2019-06-07T20:08:36.184Z,21.90
2019-06-07T20:11:02.872Z,21.90
2019-06-07T20:13:29.318Z,21.90
2019-06-07T20:15:56.843Z,21.80
2019-06-07T20:18:23.299Z,21.80
2019-06-07T20:20:49.736Z,21.70
2019-06-07T20:23:16.333Z,21.80
2019-06-07T20:25:42.856Z,21.90
2019-06-07T20:28:09.677Z,22.10
2019-06-07T20:30:36.269Z,22.20
2019-06-07T20:33:03.993Z,22.30
2019-06-07T20:35:30.684Z,22.30
2019-06-07T20:37:57.215Z,22.40
2019-06-07T20:40:24.842Z,22.40
2019-06-07T20:42:51.591Z,22.40
2019-06-07T20:45:32.316Z,22.50
2019-06-07T20:47:46.687Z,22.60
2019-06-07T20:50:13.763Z,22.60
2019-06-07T20:52:47.946Z,22.60
2019-06-07T20:55:19.493Z,22.60
2019-06-07T20:57:49.734Z,22.60
2019-06-07T21:00:27.844Z,22.60
2019-06-07T21:02:55.115Z,22.60
2019-06-07T21:05:21.530Z,22.60
2019-06-07T21:07:54.191Z,22.60
2019-06-07T21:10:34.046Z,22.60
2019-06-07T21:13:01.974Z,22.60
2019-06-07T21:15:29.189Z,22.60
2019-06-07T21:17:55.540Z,22.30
2019-06-07T21:20:21.942Z,22.00
2019-06-07T21:22:48.376Z,21.60
2019-06-07T21:25:14.869Z,21.20
2019-06-07T21:27:41.523Z,20.80
2019-06-07T21:30:09.522Z,20.40
2019-06-07T21:32:36.360Z,20.20
2019-06-07T21:35:05.884Z,19.80
2019-06-07T21:37:32.728Z,19.50
2019-06-07T21:40:00.226Z,19.20
2019-06-07T21:42:27.024Z,19.00
2019-06-07T21:44:53.406Z,18.80
2019-06-07T21:47:19.764Z,18.70
2019-06-07T21:49:46.120Z,18.70
2019-06-07T21:52:12.896Z,18.60
2019-06-07T21:54:41.383Z,18.20
2019-06-07T21:57:08.987Z,18.00
2019-06-07T21:59:35.558Z,17.80
2019-06-07T22:02:03.233Z,17.80
2019-06-07T22:04:29.778Z,17.70
2019-06-07T22:06:56.470Z,17.60
2019-06-07T22:09:22.944Z,17.60
2019-06-07T22:11:49.338Z,17.50
2019-06-07T22:14:15.825Z,17.30
2019-06-07T22:16:42.322Z,17.20
2019-06-07T22:19:12.743Z,17.00
2019-06-07T22:21:40.680Z,17.00
2019-06-07T22:24:26.493Z,17.10
2019-06-07T22:27:04.872Z,16.90
2019-06-07T22:29:31.585Z,16.70
2019-06-07T22:32:01.991Z,16.60
2019-06-07T22:34:33.681Z,16.60
2019-06-07T22:37:02.787Z,16.50
2019-06-07T22:39:36.420Z,16.60
2019-06-07T22:42:15.261Z,16.50
2019-06-07T22:44:47.229Z,16.50
2019-06-07T22:47:18.290Z,16.50
2019-06-07T22:49:45.653Z,16.50
2019-06-07T22:52:15.147Z,16.40
2019-06-07T22:54:40.731Z,15.80
2019-06-07T22:57:12.257Z,16.40
2019-06-07T22:59:38.639Z,16.30
2019-06-07T23:02:05.378Z,16.30
2019-06-07T23:04:35.160Z,16.30
2019-06-07T23:07:01.763Z,16.30
2019-06-07T23:09:35.041Z,16.30
2019-06-07T23:12:06.479Z,16.30
2019-06-07T23:14:38.203Z,16.30
2019-06-07T23:17:14.112Z,16.20
2019-06-07T23:19:50.009Z,16.10
2019-06-07T23:22:23.263Z,16.10
2019-06-07T23:25:01.764Z,16.00
2019-06-07T23:27:34.421Z,16.00
2019-06-07T23:30:08.605Z,16.00
2019-06-07T23:32:37.814Z,15.90
2019-06-07T23:35:07.461Z,15.90
2019-06-07T23:37:42.773Z,15.90
2019-06-07T23:40:19.308Z,15.80
2019-06-07T23:42:54.951Z,15.80
2019-06-07T23:45:30.343Z,15.70
2019-06-07T23:47:58.812Z,15.70
2019-06-07T23:50:27.647Z,15.70
2019-06-07T23:53:05.600Z,15.70
2019-06-07T23:55:34.862Z,15.70
2019-06-07T23:58:07.759Z,15.70
